Latest Coastal Weather Observations for Ceduna

IDS60701

Issued at 5:45 am CDT Sunday 26 October 2014 (issued every 10 minutes, with the page automatically refreshed every 10 minutes)

About coastal observations | Map of coastal stations | Coastal observations for SA | Marine services | Other Formats
Station Details ID: 018012 Name: CEDUNA AMO Lat: -32.13 Lon: 133.70 Height: 15.3 m
Data from the previous 72 hours. | See also: Recent months at Ceduna
Date/Time
CDT
Temp

°C
Wind Pressure Rain
since 9am
mm
Weather Cloud Vis
km
Sea
Height
m
Swell
Dir
 
Speed
knots
Gust
knots
hPa Trend Height
m
Period
s
Dir
26/05:30am 21.8 NE 13 18 1008.5 - - - - 10 - - - -
26/05:00am 21.5 ENE 10 13 1009.0 - - - - 10 - - - -
26/04:30am 21.7 E 11 13 1009.1 - - - Partly cloudy 10 - - - -
26/04:00am 21.6 ESE 11 14 1009.7 - - - Partly cloudy 10 - - - -
26/03:30am 21.3 SE 10 12 1010.7 - - - - 10 - - - -
26/03:00am 22.1 SSW 11 15 1012.4 R 0.0 - Cloudy 10 - - - -
26/02:45am 22.5 SW 15 25 1012.4 - - - - 10 - - - -
26/02:34am 22.2 WSW 19 25 1013.0 - - - - 10 - - - -
26/02:30am 22.1 W 19 26 1013.3 - - - - 10 - - - -
26/02:20am 21.8 SW 18 25 1012.2 - - - - 5 - - - -
26/02:18am 20.9 W 22 42 1012.3 - - - - 5 - - - -
26/02:17am 20.9 W 21 42 1012.2 - - - - 6 - - - -
26/02:15am 20.7 W 15 29 1011.9 - - - - 9 - - - -
26/02:00am 21.0 E 7 9 1009.8 - - - - 10 - - - -
26/01:30am 20.0 ENE 8 10 1009.8 - - - - 10 - - - -
26/01:00am 18.4 SE 5 6 1010.9 - - - - 10 - - - -
26/12:30am 16.7 SE 5 8 1011.0 - - - - 10 - - - -
26/12:00am 16.2 SE 6 8 1011.7 F - - - 10 - - - -
 
Date/Time
CDT
Temp

°C
Wind Pressure Rain
since 9am
mm
Weather Cloud Vis
km
Sea
Height
m
Swell
Dir
 
Speed
knots
Gust
knots
hPa Trend Height
m
Period
s
Dir
25/11:30pm 17.5 ESE 5 6 1012.3 - - - - 10 - - - -
25/11:00pm 19.0 E 1 6 1012.5 - - - - 10 - - - -
25/10:30pm 19.8 E 8 11 1012.5 - - - - 10 - - - -
25/10:00pm 19.3 ESE 7 9 1013.1 - - - - 10 - - - -
25/09:30pm 19.5 ESE 7 9 1013.5 - - - - 10 - - - -
25/09:00pm 19.9 ESE 8 10 1013.6 F - - - 10 - - - -
25/08:30pm 20.0 SE 8 10 1013.6 - - - - 10 - - - -
25/08:00pm 20.3 SE 8 11 1013.9 - 0.0 - - 10 - - - -
25/07:30pm 21.1 SSE 8 11 1014.0 - 0.0 - - 10 - - - -
25/07:00pm 21.6 SSE 9 12 1014.0 - 0.0 - - 10 - - - -
25/06:30pm 22.3 S 11 15 1014.1 - 0.0 - - 10 - - - -
25/06:00pm 22.8 S 12 14 1014.2 F 0.0 - Mostly clear 10 - - - -
25/05:30pm 23.5 S 10 13 1014.2 - 0.0 - - 10 - - - -
25/05:00pm 24.0 S 10 12 1014.3 - 0.0 - - 10 - - - -
25/04:30pm 25.1 S 10 13 1014.5 - 0.0 - - 10 - - - -
25/04:00pm 25.6 SSE 9 12 1014.4 - 0.0 - - 10 - - - -
25/03:30pm 24.7 S 10 13 1014.8 - 0.0 - - 10 - - - -
25/03:00pm 23.9 S 10 13 1015.5 F 0.0 - - 10 - - - -
25/02:30pm 24.0 S 10 13 1015.9 - 0.0 - - 10 - - - -
25/02:00pm 24.5 SSW 10 13 1016.3 - 0.0 - - 10 - - - -
25/01:30pm 23.7 SSW 10 13 1016.6 - 0.0 - - 10 - - - -
25/01:00pm 23.2 SW 11 14 1016.9 - 0.0 - - 10 - - - -
25/12:30pm 23.0 SW 10 13 1017.2 - 0.0 - - 10 - - - -
25/12:00pm 22.7 SW 9 12 1017.7 F 0.0 - - 10 - - - -
25/11:30am 21.4 SSW 9 12 1018.0 - 0.0 - - 10 - - - -
25/11:00am 20.8 SW 6 8 1018.3 - 0.0 - - 10 - - - -
25/10:30am 21.0 SE 5 7 1018.8 - 0.0 - - 10 - - - -
25/10:00am 19.2 SE 4 6 1018.7 - 0.0 - - 10 - - - -
25/09:48am 18.8 E 4 7 1018.6 - 0.0 - Partly cloudy 10 - - - -
25/09:30am 18.1 NE 4 9 1019.1 - 0.0 - Partly cloudy 10 - - - -
25/09:00am 16.9 ESE 5 7 1019.1 S 0.0 - Mostly cloudy 10 - - - -
25/08:30am 16.3 ESE 6 8 1019.0 - 0.0 - Cloudy 10 - - - -
25/08:00am 15.6 ESE 6 9 1019.1 - 0.0 - Cloudy 10 - - - -
25/07:30am 15.5 SSE 5 9 1018.6 - 0.0 - Cloudy 10 - - - -
25/07:00am 15.6 ESE 5 8 1018.3 - 0.0 - Cloudy 10 - - - -
25/06:30am 15.6 ESE 4 6 1017.6 - 0.0 - Cloudy 10 - - - -
25/06:00am 15.4 E 5 7 1017.6 R 0.0 - Cloudy 10 - - - -
25/05:30am 14.4 E 2 3 1017.8 - 0.0 - Cloudy 10 - - - -
25/05:00am 13.6 E 4 6 1017.7 - 0.0 - Cloudy 10 - - - -
25/04:30am 12.9 ESE 4 5 1017.5 - 0.0 - Cloudy 10 - - - -
25/04:15am 12.3 CALM 0 0 1017.8 - 0.0 - Cloudy 10 - - - -
25/04:00am 11.2 CALM 0 0 1017.8 - 0.0 - Cloudy 1 - - - -
25/03:30am 11.1 N 5 6 1018.0 - 0.0 - Partly cloudy 0.3 - - - -
25/03:16am 9.5 N 4 5 1017.5 - 0.0 - Partly cloudy 0.1 - - - -
25/03:00am 9.8 N 4 4 1017.4 R 0.0 - - 0.5 - - - -
25/02:30am 10.2 CALM 0 0 1017.1 - 0.0 - - 0.3 - - - -
25/02:00am 12.1 N 2 4 1017.0 - 0.0 - - 0.6 - - - -
25/01:53am 12.2 ENE 1 4 1017.1 - 0.0 - - 5 - - - -
25/01:48am 12.0 CALM 0 0 1017.0 - 0.0 - - 10 - - - -
25/01:34am 12.9 S 1 3 1017.2 - 0.0 - - 5 - - - -
25/01:30am 13.0 S 2 4 1017.2 - 0.0 - - 8 - - - -
25/01:00am 15.0 S 5 6 1017.4 - 0.0 - - 10 - - - -
25/12:30am 15.5 S 6 7 1017.6 - 0.0 - - 10 - - - -
25/12:00am 15.8 SSW 6 7 1017.8 R 0.0 - - 10 - - - -
 
Date/Time
CDT
Temp

°C
Wind Pressure Rain
since 9am
mm
Weather Cloud Vis
km
Sea
Height
m
Swell
Dir
 
Speed
knots
Gust
knots
hPa Trend Height
m
Period
s
Dir
24/11:30pm 16.1 S 6 7 1017.6 - 0.0 - - 10 - - - -
24/11:00pm 16.1 S 6 8 1017.5 - 0.0 - - 10 - - - -
24/10:30pm 16.7 S 7 8 1017.5 - 0.0 - - 10 - - - -
24/10:00pm 17.2 S 8 9 1017.4 - 0.0 - - 10 - - - -
24/09:30pm 17.4 SSW 7 8 1017.3 - 0.0 - - 10 - - - -
24/09:00pm 17.9 S 8 10 1016.6 R 0.0 - - 10 - - - -
24/08:30pm 18.1 S 8 12 1016.2 - 0.0 - - 10 - - - -
24/08:00pm 18.6 SSW 11 14 1016.0 - 0.0 - - 10 - - - -
24/07:30pm 19.1 S 11 14 1015.6 - 0.0 - - 10 - - - -
24/07:00pm 19.9 S 13 17 1015.1 - 0.0 - - 10 - - - -
24/06:30pm 20.5 SSW 14 19 1014.8 - 0.0 - - 10 - - - -
24/06:00pm 21.4 SSW 15 19 1014.5 R 0.0 - - 10 - - - -
24/05:30pm 21.5 SSW 17 23 1014.3 - 0.0 - - 10 - - - -
24/05:00pm 22.0 SSW 19 23 1014.1 - 0.0 - - 10 - - - -
24/04:30pm 22.4 SSW 19 24 1014.1 - 0.0 - - 10 - - - -
24/04:00pm 23.4 SSW 17 22 1014.0 - 0.0 - - 10 - - - -
24/03:30pm 23.5 SSW 17 21 1014.0 - 0.0 - - 10 - - - -
24/03:00pm 24.5 SSW 16 19 1014.0 R 0.0 - - 10 - - - -
24/02:30pm 25.0 SSW 16 20 1013.9 - 0.0 - - 10 - - - -
24/02:00pm 25.7 SSW 15 19 1014.0 - 0.0 - - 10 - - - -
24/01:30pm 24.8 SW 14 18 1014.0 - 0.0 - - 10 - - - -
24/01:00pm 25.3 SW 12 15 1014.0 - 0.0 - - 10 - - - -
24/12:30pm 27.3 SW 10 13 1013.9 - 0.0 - - 10 - - - -
24/12:00pm 29.0 W 8 11 1013.9 F 0.0 - - 10 - - - -
24/11:30am 29.6 WNW 4 6 1013.8 - 0.0 - - 10 - - - -
24/11:00am 27.9 SE 3 7 1014.1 - 0.0 - - 10 - - - -
24/10:30am 25.6 S 5 8 1014.2 - 0.0 - - 10 - - - -
24/10:00am 23.8 SSE 6 8 1014.4 - 0.0 - - 10 - - - -
24/09:30am 22.8 S 8 13 1014.3 - 0.0 - - 10 - - - -
24/09:00am 22.4 SSW 8 13 1014.3 R 0.0 - - 10 - - - -
24/08:30am 21.9 SSW 9 15 1013.9 - 0.0 - - 10 - - - -
24/08:00am 21.6 S 6 9 1013.8 - 0.0 - - 10 - - - -
24/07:30am 22.0 SSW 6 10 1013.3 - 0.0 - - 10 - - - -
24/07:00am 19.7 WSW 14 16 1012.8 - 0.0 - - 10 - - - -
24/06:30am 20.5 NE 6 8 1011.3 - 0.0 - - 10 - - - -
24/06:00am 19.8 NE 6 7 1011.3 R 0.0 - - 10 - - - -
24/05:30am 17.9 NNE 7 8 1011.1 - 0.0 - - 10 - - - -
24/05:00am 18.6 NNE 5 7 1011.1 - 0.0 - - 10 - - - -
24/04:30am 19.0 NNE 6 7 1010.9 - 0.0 - - 10 - - - -
24/04:00am 18.5 ENE 7 9 1010.6 - 0.0 - - 10 - - - -
24/03:30am 18.8 ENE 6 7 1010.9 - 0.0 - - 10 - - - -
24/03:00am 19.5 ENE 6 7 1011.3 F 0.0 - Mostly clear 10 - - - -
24/02:30am 20.9 NE 6 7 1011.8 - 0.0 - - 10 - - - -
24/02:00am 20.7 NNE 8 12 1011.9 - 0.0 - - 10 - - - -
24/01:30am 20.6 NE 9 11 1012.1 - 0.0 - - 10 - - - -
24/01:00am 20.0 NE 9 13 1012.3 - 0.0 - - 10 - - - -
24/12:30am 19.0 ENE 7 9 1012.5 - 0.0 - - 10 - - - -
24/12:00am 19.8 ENE 7 10 1013.1 F 0.0 - Mostly clear 10 - - - -
 
Date/Time
CDT
Temp

°C
Wind Pressure Rain
since 9am
mm
Weather Cloud Vis
km
Sea
Height
m
Swell
Dir
 
Speed
knots
Gust
knots
hPa Trend Height
m
Period
s
Dir
23/11:30pm 19.7 ENE 10 13 1013.2 - 0.0 - - 10 - - - -
23/11:00pm 19.3 NE 7 10 1014.2 - 0.0 - - 10 - - - -
23/10:30pm 19.4 W 6 8 1015.8 - 0.0 - - 10 - - - -
23/10:00pm 19.4 E 5 7 1014.7 - 0.0 - - 10 - - - -
23/09:30pm 19.0 E 8 10 1014.1 - 0.0 - - 10 - - - -
23/09:00pm 18.8 SSE 3 5 1014.7 F 0.0 - Cloudy 10 - - - -
23/08:30pm 19.4 SSW 5 7 1014.6 - 0.0 - - 10 - - - -
23/08:00pm 19.9 SE 4 6 1014.2 - 0.0 - - 10 - - - -
23/07:30pm 19.7 ESE 7 9 1013.8 - 0.0 - - 10 - - - -
23/07:00pm 19.1 SSE 8 11 1014.2 - 0.0 - - 10 - - - -
23/06:30pm 19.2 S 9 11 1014.6 - 0.0 - - 10 - - - -
23/06:00pm 19.7 S 10 12 1014.6 R 0.0 - Cloudy 10 - - - -
23/05:30pm 20.0 S 10 13 1014.5 - 0.0 - - 10 - - - -
23/05:00pm 20.0 S 12 15 1014.2 - 0.0 - - 10 - - - -
23/04:30pm 21.1 S 12 15 1014.4 - 0.0 - - 10 - - - -
23/04:00pm 21.6 S 13 15 1014.3 - 0.0 - - 10 - - - -
23/03:30pm 23.1 S 12 15 1014.4 - 0.0 - - 10 - - - -
23/03:00pm 23.9 S 11 14 1014.5 F 0.0 - - 10 - - - -
23/02:30pm 24.0 S 11 14 1014.8 - 0.0 - - 10 - - - -
23/02:00pm 23.0 SSW 12 15 1015.1 - 0.0 - - 10 - - - -
23/01:30pm 21.6 SSW 10 12 1015.5 - 0.0 - - 10 - - - -
23/01:00pm 20.7 SW 11 13 1015.8 - 0.0 - - 10 - - - -
23/12:30pm 20.6 SW 11 13 1016.0 - 0.0 - - 10 - - - -
23/12:00pm 20.7 WSW 9 12 1016.4 F 0.0 - - 10 - - - -
23/11:30am 22.0 ENE 3 6 1016.7 - 0.0 - - 10 - - - -
23/11:00am 20.2 SE 5 8 1017.1 - 0.0 - - 10 - - - -
23/10:30am 18.5 ENE 6 9 1017.5 - 0.0 - - 10 - - - -
23/10:00am 16.2 ENE 7 9 1017.6 - 0.0 - Partly cloudy 10 - - - -
23/09:57am 16.0 ENE 6 9 1017.7 - 0.0 - Partly cloudy 10 - - - -
23/09:30am 14.5 ENE 5 8 1018.0 - 0.0 - Cloudy 10 - - - -
23/09:00am 13.1 ESE 7 10 1017.8 F 0.0 - Cloudy 9 - - - -
23/08:56am 13.2 ESE 7 9 1017.9 - 0.0 - Cloudy 9 - - - -
23/08:30am 12.8 ESE 8 11 1018.1 - 0.0 - Cloudy 3 - - - -
23/08:16am 13.5 ESE 8 11 1017.8 - 0.0 - Cloudy 5 - - - -
23/08:00am 13.8 ESE 8 9 1017.9 - 0.0 - Cloudy 10 - - - -
23/07:30am 13.2 E 8 10 1017.9 - 0.0 - Cloudy 10 - - - -
23/07:13am 12.6 E 6 7 1018.1 - 0.0 - Partly cloudy 10 - - - -
23/07:00am 12.4 E 6 7 1018.1 - 0.0 - - 10 - - - -
23/06:51am 12.7 E 6 8 1018.1 - 0.0 - Partly cloudy 10 - - - -
23/06:30am 14.1 ESE 8 10 1018.0 - 0.0 - Cloudy 10 - - - -
23/06:00am 14.7 SE 7 10 1018.1 F 0.0 - Cloudy 10 - - - -

Other Formats:

Comma delimited format used in spreadsheet applications
http://www.bom.gov.au/fwo/IDS60701/IDS60701.94653.axf

JavaScript Object Notation format (JSON) in row-major order
http://www.bom.gov.au/fwo/IDS60701/IDS60701.94653.json